Embu, Brazil
Current Conditions -  °F | °C
As of 7:00 PM on Monday 24 Nov 2014 (Local Time) from SBSP Reporting Station
Haze Haze  
Wind Chill: 68°   Ceiling: 600
Heat Index: 68°   Visibility: 1.8mi
Dew Point: 64°   Wind: 12mph
Humidity: 88%   Direction: 150°SSE
Pressure: 30"   Gusts: NA
Location:  23.64°S, 46.84°W
Report Text: SBSP 242100Z 15010KT 3000 BR SCT002 OVC006 20/18 Q1016
Loading
Personal Weather Stations






























Interactive Weather Map New forecast layout! Learn more

10-Day Weather Forecast

Advertisements
Track Severe Weather on mobile